Time;durP1;ratioP1;P1;durP2;ratioP2;P2;SDS_P1;SDS_P2;PMS_P1;PMS_P2;Temp;Humidity;BMP_temperature;BMP_pressure;BME280_temperature;BME280_humidity;BME280_pressure;Samples;Min_cycle;Max_cycle;Signal;HPM_P1;HPM_P2
2023/01/15 00:02:06;;;;;;;7.30;3.50;;;;;;;6.20;64.65;99209.61;131329;1296;22585;-90
2023/01/15 00:05:08;;;;;;;7.20;3.40;;;;;;;6.21;64.71;99208.05;131433;1298;23024;-89
2023/01/15 00:08:09;;;;;;;7.00;3.20;;;;;;;6.23;64.85;99204.02;131528;1300;22568;-89
2023/01/15 00:11:10;;;;;;;6.80;3.40;;;;;;;6.24;64.78;99198.11;131599;1302;22609;-88
2023/01/15 00:14:11;;;;;;;;;;;;;;;6.25;64.78;99185.90;131663;1302;22458;-88
2023/01/15 00:17:12;;;;;;;6.90;3.40;;;;;;;6.25;64.66;99171.95;131625;1282;25613;-89
2023/01/15 00:20:13;;;;;;;8.40;4.30;;;;;;;6.27;64.81;99164.04;131476;1301;22594;-88
2023/01/15 00:27:37;;;;;;;;;;;;;;;6.29;65.14;99158.73;131550;1304;22589;-87
2023/01/15 00:29:54;;;;;;;8.30;4.00;;;;;;;6.36;64.34;99144.20;131626;1298;22750;-88
2023/01/15 00:32:58;;;;;;;9.50;3.70;;;;;;;6.39;64.79;99137.21;131221;1303;22529;-87
2023/01/15 00:35:59;;;;;;;6.60;3.80;;;;;;;6.37;64.61;99132.27;131383;1303;22622;-91
2023/01/15 00:39:02;;;;;;;;;;;;;;;6.40;64.69;99129.40;131734;1303;24132;-89
2023/01/15 00:42:03;;;;;;;6.60;3.50;;;;;;;6.40;64.46;99132.67;131534;1303;25585;-88
2023/01/15 00:45:10;;;;;;;7.70;3.90;;;;;;;6.45;64.38;99135.17;131306;1303;22495;-87
2023/01/15 00:48:11;;;;;;;10.80;3.60;;;;;;;6.49;64.28;99138.04;131199;1291;24366;-88
2023/01/15 00:51:13;;;;;;;7.90;4.10;;;;;;;6.52;64.38;99136.45;131209;1304;22733;-86
2023/01/15 00:54:16;;;;;;;7.30;3.50;;;;;;;6.52;64.49;99127.92;131285;1303;22745;-92
2023/01/15 00:57:18;;;;;;;5.90;3.30;;;;;;;6.53;64.79;99133.20;131526;1303;22607;-95
2023/01/15 01:00:21;;;;;;;6.50;3.40;;;;;;;6.53;64.32;99132.48;131410;1303;23045;-90
2023/01/15 01:03:27;;;;;;;5.50;3.60;;;;;;;6.55;64.43;99127.60;131604;1301;22619;-89
2023/01/15 01:06:28;;;;;;;5.40;3.40;;;;;;;6.52;64.71;99117.48;131349;1300;22624;-88
2023/01/15 01:09:28;;;;;;;;;;;;;;;6.51;64.75;99107.23;131718;1295;26727;-88
2023/01/15 01:12:30;;;;;;;10.90;3.20;;;;;;;6.53;64.85;99106.67;131558;1303;22547;-88
2023/01/15 01:15:36;;;;;;;;;;;;;;;6.54;65.02;99111.66;131394;1303;23765;-88
2023/01/15 01:18:37;;;;;;;7.90;3.50;;;;;;;6.54;64.95;99108.55;131587;1300;22541;-88
2023/01/15 01:21:39;;;;;;;7.10;3.30;;;;;;;6.53;65.17;99099.65;131335;1296;22554;-92
2023/01/15 01:24:42;;;;;;;7.40;3.90;;;;;;;6.54;65.25;99086.92;131740;1303;22566;-86
2023/01/15 01:27:43;;;;;;;;;;;;;;;6.57;65.25;99089.18;131607;1303;22530;-89
2023/01/15 01:30:46;;;;;;;5.40;2.70;;;;;;;6.60;65.41;99087.50;131586;1303;23828;-85
2023/01/15 01:33:51;;;;;;;5.10;2.50;;;;;;;6.65;65.47;99091.97;131786;1296;24430;-87
2023/01/15 01:36:52;;;;;;;4.80;2.50;;;;;;;6.80;65.60;99082.20;131458;1303;22674;-91
2023/01/15 01:39:55;;;;;;;3.70;2.20;;;;;;;6.90;65.29;99079.61;131659;1298;22589;-90
2023/01/15 01:42:56;;;;;;;3.80;2.60;;;;;;;6.97;65.64;99083.58;131502;1300;24058;-91
2023/01/15 01:45:57;;;;;;;4.80;3.60;;;;;;;7.01;65.50;99073.17;131524;1303;22594;-90
2023/01/15 01:49:07;;;;;;;3.50;2.40;;;;;;;7.02;65.51;99069.89;131094;1300;22576;-90
2023/01/15 01:52:15;;;;;;;3.70;2.10;;;;;;;7.04;65.59;99060.13;131225;1301;22620;-89
2023/01/15 01:55:18;;;;;;;4.50;2.40;;;;;;;7.03;65.74;99058.67;131223;1300;22575;-88
2023/01/15 01:58:24;;;;;;;3.60;2.20;;;;;;;7.04;65.94;99046.63;131481;1303;22592;-87
2023/01/15 02:01:25;;;;;;;4.00;2.40;;;;;;;7.03;66.06;99043.38;131598;1304;22776;-88
2023/01/15 02:04:29;;;;;;;6.70;2.50;;;;;;;7.02;66.04;99042.58;131564;1304;22555;-86
2023/01/15 02:07:33;;;;;;;4.10;2.40;;;;;;;6.99;65.94;99033.79;131687;1303;22594;-86
2023/01/15 02:10:34;;;;;;;3.00;2.30;;;;;;;6.96;66.22;99022.17;131272;1300;24349;-86
2023/01/15 02:13:44;;;;;;;4.30;1.90;;;;;;;6.94;66.20;99020.33;131542;1296;22602;-87
2023/01/15 02:16:58;;;;;;;4.40;2.40;;;;;;;6.90;66.48;99019.29;131586;1296;22603;-87
2023/01/15 02:20:24;;;;;;;6.90;2.60;;;;;;;6.87;66.56;99017.34;131386;1300;22832;-89
2023/01/15 02:23:47;;;;;;;4.70;2.80;;;;;;;6.86;66.91;99014.68;131711;1300;22705;-89
2023/01/15 02:27:01;;;;;;;3.50;2.50;;;;;;;6.84;67.24;99006.81;131729;1301;24981;-87
2023/01/15 02:30:15;;;;;;;;;;;;;;;6.83;67.37;99009.95;131768;1299;22543;-87
2023/01/15 02:33:37;;;;;;;3.30;2.40;;;;;;;6.78;67.74;99007.49;131844;1301;22606;-87
2023/01/15 02:36:43;;;;;;;4.30;2.30;;;;;;;6.78;68.15;99003.42;131942;1299;22571;-88
2023/01/15 02:39:51;;;;;;;5.10;2.90;;;;;;;6.77;68.22;99002.88;131818;1303;24240;-87
2023/01/15 02:42:54;;;;;;;3.90;2.50;;;;;;;6.77;68.62;98999.23;131841;1296;22556;-86
2023/01/15 02:45:59;;;;;;;9.40;2.70;;;;;;;6.74;68.87;98980.67;131772;1303;22583;-88
2023/01/15 02:49:04;;;;;;;5.00;3.10;;;;;;;6.77;69.13;98969.27;131866;1296;22574;-88
2023/01/15 02:52:13;;;;;;;3.80;2.60;;;;;;;6.80;69.30;98967.25;131978;1303;22575;-88
2023/01/15 02:55:25;;;;;;;4.60;2.90;;;;;;;6.77;69.29;98964.20;131823;1296;22565;-88
2023/01/15 02:58:31;;;;;;;5.60;2.90;;;;;;;6.81;69.43;98982.39;131384;1296;24322;-87
2023/01/15 03:01:41;;;;;;;4.20;2.30;;;;;;;6.80;69.61;98984.20;131723;1303;22597;-87
2023/01/15 03:05:14;;;;;;;5.60;2.70;;;;;;;6.80;69.89;98977.55;131772;1299;22572;-88
2023/01/15 03:08:15;;;;;;;4.40;2.90;;;;;;;6.81;69.99;98983.77;131825;1298;22556;-89
2023/01/15 03:11:19;;;;;;;4.90;2.70;;;;;;;6.81;70.00;98982.55;131576;1296;22571;-90
2023/01/15 03:15:07;;;;;;;3.90;2.50;;;;;;;6.79;70.14;98974.32;131860;1300;22581;-88
2023/01/15 03:18:12;;;;;;;5.20;2.40;;;;;;;6.81;70.37;98957.54;131830;1297;22577;-87
2023/01/15 03:21:19;;;;;;;3.60;2.40;;;;;;;6.82;70.48;98953.23;131749;1297;22577;-89
2023/01/15 03:24:27;;;;;;;3.80;2.40;;;;;;;6.85;70.76;98942.38;132097;1301;22597;-89
2023/01/15 03:27:28;;;;;;;5.80;2.60;;;;;;;6.87;71.23;98938.81;131804;1296;22579;-87
2023/01/15 03:30:32;;;;;;;4.40;3.00;;;;;;;6.89;71.33;98931.02;131638;1303;22552;-87
2023/01/15 03:33:34;;;;;;;3.10;2.10;;;;;;;6.91;71.63;98926.02;132125;1298;22576;-89
2023/01/15 03:36:36;;;;;;;3.10;2.40;;;;;;;6.91;71.99;98921.45;132010;1300;22570;-88
2023/01/15 03:39:38;;;;;;;3.50;2.40;;;;;;;6.97;72.29;98912.91;132037;1290;22789;-87
2023/01/15 03:46:48;;;;;;;3.30;2.20;;;;;;;7.03;73.00;98911.38;132207;1303;22567;-86
2023/01/15 03:49:58;;;;;;;4.80;2.60;;;;;;;7.07;73.01;98928.05;132216;1289;22600;-86
2023/01/15 03:53:27;;;;;;;3.20;2.20;;;;;;;7.12;73.13;98945.84;132057;1297;25323;-87
2023/01/15 03:56:56;;;;;;;3.20;2.30;;;;;;;7.14;73.34;98934.65;131896;1300;25307;-86
2023/01/15 04:00:02;;;;;;;4.50;2.00;;;;;;;7.22;73.42;98928.86;132237;1298;22635;-87
2023/01/15 04:03:10;;;;;;;3.70;2.40;;;;;;;7.26;73.55;98928.73;132268;1303;22543;-87
2023/01/15 04:06:11;;;;;;;3.30;2.20;;;;;;;7.30;73.72;98918.16;132236;1300;22566;-86
2023/01/15 04:09:13;;;;;;;2.80;2.20;;;;;;;7.33;73.71;98918.34;132308;1300;22594;-87
2023/01/15 04:12:16;;;;;;;3.00;2.20;;;;;;;7.35;74.00;98906.63;132216;1296;22523;-87
2023/01/15 04:15:21;;;;;;;2.30;1.80;;;;;;;7.37;74.31;98910.49;132202;1296;22712;-86
2023/01/15 04:18:23;;;;;;;2.60;2.30;;;;;;;7.37;74.56;98909.42;132177;1297;22566;-87
2023/01/15 04:21:25;;;;;;;3.70;2.30;;;;;;;7.39;74.64;98913.18;132384;1303;22534;-88
2023/01/15 04:24:26;;;;;;;2.80;1.90;;;;;;;7.41;74.96;98904.90;132232;1296;24228;-87
2023/01/15 04:27:27;;;;;;;;;;;;;;;7.45;75.26;98902.57;132159;1301;22624;-86
2023/01/15 04:30:27;;;;;;;4.10;2.10;;;;;;;7.48;75.18;98894.05;131904;1296;22575;-87
2023/01/15 04:33:28;;;;;;;2.80;1.80;;;;;;;7.48;75.26;98887.33;131967;1301;24236;-88
2023/01/15 04:36:29;;;;;;;;;;;;;;;7.47;75.62;98883.12;132045;1297;22753;-91
2023/01/15 04:39:30;;;;;;;;;;;;;;;7.47;76.03;98886.24;132003;1303;22567;-87
2023/01/15 04:45:50;;;;;;;3.00;2.30;;;;;;;7.47;76.41;98882.27;132096;1300;22548;-87
2023/01/15 04:48:51;;;;;;;3.30;1.70;;;;;;;7.48;76.87;98878.66;132019;1295;22595;-88
2023/01/15 04:51:51;;;;;;;;;;;;;;;7.46;76.96;98877.58;131734;1300;26440;-87
2023/01/15 04:54:54;;;;;;;1.90;1.70;;;;;;;7.44;77.16;98875.05;131748;1303;25353;-86
2023/01/15 04:57:55;;;;;;;2.10;1.90;;;;;;;7.38;77.63;98874.07;131170;1300;22565;-89
2023/01/15 05:00:59;;;;;;;4.10;2.00;;;;;;;7.33;78.39;98864.61;131403;1295;22550;-90
2023/01/15 05:04:01;;;;;;;1.90;1.50;;;;;;;7.28;79.12;98860.69;131377;1296;22508;-90
2023/01/15 05:07:04;;;;;;;3.80;1.70;;;;;;;7.24;79.76;98854.33;131573;1303;22569;-88
2023/01/15 05:10:05;;;;;;;5.60;1.70;;;;;;;7.23;80.26;98853.31;131255;1303;26028;-89
2023/01/15 05:13:06;;;;;;;2.80;2.00;;;;;;;7.22;80.63;98842.08;131593;1303;22530;-91
2023/01/15 05:16:17;;;;;;;;;;;;;;;7.24;81.24;98851.42;131559;1300;22712;-88
2023/01/15 05:19:18;;;;;;;4.00;2.10;;;;;;;7.27;81.29;98843.74;131322;1296;22561;-88
2023/01/15 05:22:19;;;;;;;;;;;;;;;7.28;81.21;98847.17;131623;1300;23838;-86
2023/01/15 05:25:20;;;;;;;2.60;1.80;;;;;;;7.28;81.63;98843.36;131627;1303;22562;-87
2023/01/15 05:28:20;;;;;;;2.40;2.00;;;;;;;7.29;81.73;98837.20;131537;1303;23001;-87
2023/01/15 05:31:21;;;;;;;;;;;;;;;7.28;81.90;98830.94;131393;1301;26519;-89
2023/01/15 05:34:22;;;;;;;4.10;2.10;;;;;;;7.27;82.20;98822.64;131388;1290;25275;-87
2023/01/15 05:37:23;;;;;;;4.20;2.30;;;;;;;7.29;82.35;98823.48;131321;1303;22889;-87
2023/01/15 05:40:24;;;;;;;2.80;2.10;;;;;;;7.29;82.30;98821.83;131565;1303;22572;-88
2023/01/15 05:43:25;;;;;;;;;;;;;;;7.27;82.44;98820.30;131518;1300;24296;-87
2023/01/15 05:46:26;;;;;;;7.90;2.30;;;;;;;7.24;83.30;98816.30;131610;1302;22579;-87
2023/01/15 05:49:28;;;;;;;;;;;;;;;7.22;83.41;98821.39;131561;1303;25269;-88
2023/01/15 05:52:29;;;;;;;2.50;1.90;;;;;;;7.20;83.89;98817.27;131578;1303;22610;-89
2023/01/15 05:55:30;;;;;;;;;;;;;;;7.18;83.95;98825.73;131440;1300;24270;-88
2023/01/15 05:58:31;;;;;;;4.60;2.40;;;;;;;7.14;84.23;98823.32;131488;1299;22605;-87
2023/01/15 06:01:32;;;;;;;5.70;2.40;;;;;;;7.11;84.70;98821.84;131205;1303;23028;-91
2023/01/15 06:04:33;;;;;;;2.10;1.90;;;;;;;7.08;84.86;98815.70;131529;1293;22606;-90
2023/01/15 06:07:34;;;;;;;4.10;2.10;;;;;;;7.06;85.24;98817.64;131026;1303;23839;-89
2023/01/15 06:10:35;;;;;;;;;;;;;;;7.04;85.44;98822.64;131136;1296;25410;-88
2023/01/15 06:13:38;;;;;;;4.70;2.10;;;;;;;7.02;85.35;98823.95;131626;1292;22573;-90
2023/01/15 06:16:39;;;;;;;2.30;2.00;;;;;;;7.00;85.72;98827.69;131194;1300;24232;-90
2023/01/15 06:19:43;;;;;;;2.10;1.90;;;;;;;6.95;85.70;98825.89;131258;1300;22651;-88
2023/01/15 06:22:43;;;;;;;6.90;2.20;;;;;;;6.94;86.13;98832.00;130937;1300;22638;-88
2023/01/15 06:25:44;;;;;;;;;;;;;;;6.94;86.08;98836.67;131568;1303;25454;-91
2023/01/15 06:28:47;;;;;;;3.30;1.90;;;;;;;6.97;86.24;98840.33;131259;1297;22602;-88
2023/01/15 06:31:48;;;;;;;2.50;1.70;;;;;;;6.98;86.14;98839.50;131280;1287;25038;-92
2023/01/15 06:34:49;;;;;;;;;;;;;;;7.04;86.40;98840.21;131316;1303;23784;-88
2023/01/15 06:37:52;;;;;;;4.70;2.50;;;;;;;7.06;86.33;98837.14;131444;1297;22567;-88
2023/01/15 06:40:52;;;;;;;3.30;2.10;;;;;;;7.09;86.34;98837.27;131296;1296;23155;-89
2023/01/15 06:47:20;;;;;;;3.70;2.20;;;;;;;7.17;86.52;98841.54;131673;1290;22557;-88
2023/01/15 06:50:24;;;;;;;4.60;2.20;;;;;;;7.17;86.56;98832.01;131721;1289;22500;-88
2023/01/15 06:53:28;;;;;;;3.30;1.70;;;;;;;7.16;86.74;98828.98;131398;1303;22625;-88
2023/01/15 06:56:29;;;;;;;3.90;2.40;;;;;;;7.17;86.63;98829.86;131770;1303;22593;-86
2023/01/15 06:59:30;;;;;;;2.30;2.10;;;;;;;7.16;86.96;98829.97;131703;1301;24232;-89
2023/01/15 07:02:31;;;;;;;3.60;1.80;;;;;;;7.16;86.91;98822.55;130907;1303;23901;-87
2023/01/15 07:05:31;;;;;;;4.60;2.30;;;;;;;7.17;87.00;98816.64;130464;1303;25319;-88
2023/01/15 07:08:32;;;;;;;2.60;1.90;;;;;;;7.24;86.77;98823.03;130447;1303;22578;-89
2023/01/15 07:11:33;;;;;;;2.40;1.80;;;;;;;7.24;86.73;98814.20;130470;1299;22607;-89
2023/01/15 07:14:33;;;;;;;2.00;1.80;;;;;;;7.24;86.56;98822.76;130561;1298;22622;-90
2023/01/15 07:17:34;;;;;;;2.30;2.10;;;;;;;7.29;86.26;98817.41;130650;1300;27519;-88
2023/01/15 07:20:35;;;;;;;;;;;;;;;7.34;86.13;98816.13;130603;1301;25418;-89
2023/01/15 07:23:35;;;;;;;2.70;1.80;;;;;;;7.36;85.86;98818.17;130848;1303;22601;-91
2023/01/15 07:26:37;;;;;;;3.00;1.80;;;;;;;7.38;85.75;98818.69;130911;1297;22559;-87
2023/01/15 07:29:37;;;;;;;4.00;2.00;;;;;;;7.40;85.76;98817.78;130674;1303;22622;-88
2023/01/15 07:32:38;;;;;;;2.10;1.70;;;;;;;7.39;85.80;98815.54;130732;1303;24314;-88
2023/01/15 07:35:39;;;;;;;2.60;2.00;;;;;;;7.41;85.38;98815.88;130774;1296;22573;-88
2023/01/15 07:38:39;;;;;;;2.10;1.70;;;;;;;7.46;85.04;98812.52;130769;1301;25354;-90
2023/01/15 07:51:53;;;;;;;2.90;2.20;;;;;;;7.64;83.96;98807.04;131182;1299;23445;-89
2023/01/15 07:54:54;;;;;;;;;;;;;;;7.57;84.15;98803.27;131087;1299;22537;-89
2023/01/15 07:57:58;;;;;;;4.30;2.80;;;;;;;7.47;84.26;98797.56;131162;1303;22689;-89
2023/01/15 08:00:59;;;;;;;5.50;4.40;;;;;;;7.33;84.33;98794.81;130371;1300;22681;-91
2023/01/15 08:03:59;;;;;;;4.10;3.10;;;;;;;7.21;84.09;98793.01;130287;1292;22558;-85
2023/01/15 08:07:02;;;;;;;5.70;3.40;;;;;;;7.11;84.22;98793.15;130487;1297;22588;-89
2023/01/15 08:10:03;;;;;;;4.30;3.10;;;;;;;7.03;84.10;98798.59;130538;1303;22595;-87
2023/01/15 08:16:30;;;;;;;2.70;2.10;;;;;;;6.91;83.55;98792.92;130669;1303;22500;-90
2023/01/15 08:19:34;;;;;;;5.00;3.30;;;;;;;6.88;83.71;98786.46;130620;1303;23302;-89
2023/01/15 08:22:35;;;;;;;4.80;3.20;;;;;;;6.86;83.62;98788.32;130330;1296;23037;-88
2023/01/15 08:25:35;;;;;;;4.30;3.40;;;;;;;6.86;83.33;98788.32;130241;1303;24205;-86
2023/01/15 08:28:36;;;;;;;11.80;4.60;;;;;;;6.84;82.99;98790.27;130609;1296;22555;-88
2023/01/15 08:31:38;;;;;;;3.00;2.10;;;;;;;6.83;82.89;98796.87;130620;1302;24248;-87
2023/01/15 08:34:39;;;;;;;3.60;2.50;;;;;;;6.81;82.66;98790.23;130595;1303;23016;-86
2023/01/15 08:37:41;;;;;;;5.50;3.20;;;;;;;6.81;82.54;98789.17;130585;1298;22600;-89
2023/01/15 08:40:57;;;;;;;5.70;2.90;;;;;;;6.79;82.57;98788.39;130731;1297;22565;-88
2023/01/15 08:43:58;;;;;;;5.50;2.20;;;;;;;6.74;82.35;98781.58;130443;1300;25538;-87
2023/01/15 08:46:59;;;;;;;4.20;2.80;;;;;;;6.71;81.90;98783.08;130353;1300;22515;-89
2023/01/15 08:50:00;;;;;;;3.60;3.20;;;;;;;6.68;81.70;98781.31;130284;1303;23026;-89
2023/01/15 08:53:03;;;;;;;4.60;3.40;;;;;;;6.65;81.44;98776.58;130236;1290;23266;-88
2023/01/15 08:56:13;;;;;;;4.70;3.00;;;;;;;6.62;81.41;98775.84;130455;1303;22551;-85
2023/01/15 08:59:13;;;;;;;4.70;2.80;;;;;;;6.58;81.53;98778.80;130609;1297;25288;-86
2023/01/15 09:02:21;;;;;;;4.00;3.10;;;;;;;6.52;81.85;98775.31;130859;1298;22632;-87
2023/01/15 09:05:22;;;;;;;4.90;3.40;;;;;;;6.41;82.19;98778.10;130726;1297;25357;-87
2023/01/15 09:08:22;;;;;;;4.40;3.30;;;;;;;6.29;82.37;98774.88;130885;1294;24240;-85
2023/01/15 09:11:23;;;;;;;6.30;4.20;;;;;;;6.21;82.76;98768.20;130906;1296;24554;-88
2023/01/15 09:14:23;;;;;;;4.70;3.70;;;;;;;6.14;83.00;98771.48;130564;1295;22803;-86
2023/01/15 09:17:24;;;;;;;5.10;3.80;;;;;;;6.07;82.83;98768.67;130589;1299;24427;-84
2023/01/15 09:20:25;;;;;;;6.70;4.00;;;;;;;6.02;82.73;98763.98;130656;1293;25329;-83
2023/01/15 09:23:26;;;;;;;6.30;4.10;;;;;;;6.00;82.37;98758.76;130507;1288;22559;-85
2023/01/15 09:26:31;;;;;;;5.40;4.00;;;;;;;6.00;82.16;98764.02;130970;1297;23312;-84
2023/01/15 09:29:32;;;;;;;5.40;3.50;;;;;;;6.01;82.05;98756.35;130765;1288;22680;-87
2023/01/15 09:32:32;;;;;;;5.10;3.70;;;;;;;6.03;81.18;98747.96;130720;1296;22599;-84
2023/01/15 09:35:33;;;;;;;5.20;3.80;;;;;;;6.03;81.12;98750.23;130364;1300;22541;-87
2023/01/15 09:38:35;;;;;;;4.90;3.20;;;;;;;6.02;80.76;98758.02;131250;1288;22685;-85
2023/01/15 09:42:09;;;;;;;4.80;3.70;;;;;;;6.01;80.61;98757.36;130730;1297;25428;-89
2023/01/15 09:45:26;;;;;;;6.00;4.10;;;;;;;6.00;80.40;98767.95;130902;1295;22598;-88
2023/01/15 09:49:03;;;;;;;5.40;3.60;;;;;;;5.97;80.06;98770.00;130984;1288;24319;-88
2023/01/15 09:52:06;;;;;;;5.60;3.60;;;;;;;5.96;80.18;98768.02;130898;1291;22521;-85
2023/01/15 09:55:25;;;;;;;5.20;3.80;;;;;;;5.96;79.52;98764.70;131341;1290;22715;-83
2023/01/15 09:58:35;;;;;;;5.30;3.60;;;;;;;5.98;79.34;98763.73;131219;1288;22659;-85
2023/01/15 10:01:36;;;;;;;5.60;4.00;;;;;;;6.00;79.06;98749.23;131327;1297;22629;-82
2023/01/15 10:04:44;;;;;;;5.30;3.80;;;;;;;6.04;78.44;98759.53;131200;1288;24336;-85
2023/01/15 10:30:44;;;;;;;;;;;;;;;;;;;;;
2023/01/15 10:39:33;;;;;;;;;;;;;;;;;;;;;
2023/01/15 10:43:34;;;;;;;4.10;3.10;;;;;;;6.16;76.92;98728.38;131148;1298;22597;-81
2023/01/15 10:48:18;;;;;;;4.20;2.80;;;;;;;6.17;76.97;98724.71;130552;1301;23825;-85
2023/01/15 10:52:10;;;;;;;;;;;;;;;;;;;;;
2023/01/15 11:04:57;;;;;;;7.20;3.80;;;;;;;6.20;76.62;98706.00;130540;1298;22559;-84
2023/01/15 11:22:05;;;;;;;6.30;4.20;;;;;;;6.32;76.37;98695.46;130842;1296;22642;-83
2023/01/15 11:25:47;;;;;;;5.50;3.80;;;;;;;6.37;76.36;98688.63;131093;1295;22568;-82
2023/01/15 11:30:02;;;;;;;;;;;;;;;;;;;;;
2023/01/15 11:56:22;;;;;;;;;;;;;;;;;;;;;
2023/01/15 12:00:43;;;;;;;;;;;;;;;;;;;;;
2023/01/15 12:05:12;;;;;;;;;;;;;;;;;;;;;
2023/01/15 12:09:58;;;;;;;;;;;;;;;;;;;;;
2023/01/15 12:14:31;;;;;;;;;;;;;;;;;;;;;
2023/01/15 12:19:30;;;;;;;;;;;;;;;;;;;;;
2023/01/15 12:28:14;;;;;;;;;;;;;;;;;;;;;
2023/01/15 12:55:21;;;;;;;;;;;;;;;;;;;;;
2023/01/15 12:59:30;;;;;;;;;;;;;;;;;;;;;
2023/01/15 13:04:10;;;;;;;;;;;;;;;;;;;;;
2023/01/15 13:09:15;;;;;;;12.90;6.00;;;;;;;6.45;78.08;98787.15;130861;1301;22569;-84
2023/01/15 13:13:36;;;;;;;5.90;3.60;;;;;;;6.51;78.21;98782.52;130036;1301;23912;-84
2023/01/15 13:17:48;;;;;;;7.20;4.50;;;;;;;6.70;78.14;98796.06;130410;1301;22827;-86
2023/01/15 13:21:56;;;;;;;;;;;;;;;;;;;;;
2023/01/15 13:26:34;;;;;;;5.50;3.40;;;;;;;6.67;78.90;98831.40;130453;1302;25347;-84
2023/01/15 13:30:45;;;;;;;;;;;;;;;;;;;;;
2023/01/15 13:39:28;;;;;;;;;;;;;;;;;;;;;
2023/01/15 13:44:02;;;;;;;3.20;1.80;;;;;;;6.05;81.51;98862.33;130336;1298;22512;-82
2023/01/15 13:48:46;;;;;;;;;;;;;;;;;;;;;
2023/01/15 14:32:42;;;;;;;;;;;;;;;;;;;;;
2023/01/15 14:37:43;;;;;;;;;;;;;;;;;;;;;
2023/01/15 14:46:58;;;;;;;5.50;3.30;;;;;;;4.71;85.32;98972.63;131141;1295;26531;-85
2023/01/15 14:50:56;;;;;;;;;;;;;;;;;;;;;
2023/01/15 15:13:18;;;;;;;;;;;;;;;;;;;;;
2023/01/15 15:21:49;;;;;;;;;;;;;;;;;;;;;
2023/01/15 15:26:08;;;;;;;;;;;;;;;;;;;;;
2023/01/15 15:31:00;;;;;;;;;;;;;;;;;;;;;
2023/01/15 15:34:55;;;;;;;;;;;;;;;;;;;;;
2023/01/15 15:38:40;;;;;;;;;;;;;;;;;;;;;
2023/01/15 15:55:05;;;;;;;;;;;;;;;;;;;;;
2023/01/15 16:17:59;;;;;;;4.80;3.40;;;;;;;4.32;87.69;99066.20;130614;1295;25460;-85
2023/01/15 16:44:15;;;;;;;;;;;;;;;;;;;;;
2023/01/15 17:15:46;;;;;;;;;;;;;;;;;;;;;
2023/01/15 17:28:50;;;;;;;19.90;11.00;;;;;;;4.06;89.51;99112.58;130566;1303;24381;-82
2023/01/15 17:37:52;;;;;;;24.10;13.90;;;;;;;4.04;89.53;99132.98;130578;1303;23909;-82
2023/01/15 17:51:11;;;;;;;20.70;13.40;;;;;;;4.01;89.57;99147.15;128871;1316;22696;-83
2023/01/15 18:12:49;;;;;;;;;;;;;;;;;;;;;
2023/01/15 18:21:46;;;;;;;23.30;14.20;;;;;;;4.09;89.63;99168.56;130637;1288;25957;-86
2023/01/15 18:29:42;;;;;;;;;;;;;;;;;;;;;
2023/01/15 18:33:44;;;;;;;33.40;19.00;;;;;;;4.03;90.03;99169.80;130544;1296;25374;-86
2023/01/15 18:38:20;;;;;;;46.70;24.70;;;;;;;4.03;90.02;99175.81;130341;1295;25554;-85
2023/01/15 18:50:54;;;;;;;;;;;;;;;;;;;;;
2023/01/15 19:04:33;;;;;;;27.20;16.10;;;;;;;3.82;90.52;99166.23;130971;1296;22601;-85
2023/01/15 19:08:21;;;;;;;;;;;;;;;;;;;;;
2023/01/15 19:21:41;;;;;;;26.70;13.50;;;;;;;3.71;90.39;99187.95;129974;1304;24293;-83
2023/01/15 19:25:49;;;;;;;;;;;;;;;;;;;;;
2023/01/15 19:30:31;;;;;;;22.70;11.60;;;;;;;3.72;90.07;99203.27;130388;1296;25520;-82
2023/01/15 20:00:40;;;;;;;13.90;6.70;;;;;;;3.64;89.58;99213.34;129585;1303;23484;-85
2023/01/15 20:09:39;;;;;;;10.10;6.10;;;;;;;3.65;89.54;99217.93;130401;1293;23937;-82
2023/01/15 20:17:34;;;;;;;;;;;;;;;;;;;;;
2023/01/15 20:21:18;;;;;;;;;;;;;;;;;;;;;
2023/01/15 20:25:40;;;;;;;;;;;;;;;;;;;;;
2023/01/15 20:34:40;;;;;;;;;;;;;;;;;;;;;
2023/01/15 20:39:21;;;;;;;14.30;7.50;;;;;;;3.61;88.43;99232.52;130717;1301;23091;-82
2023/01/15 20:51:48;;;;;;;;;;;;;;;;;;;;;
2023/01/15 20:55:54;;;;;;;;;;;;;;;;;;;;;
2023/01/15 21:00:14;;;;;;;;;;;;;;;;;;;;;
2023/01/15 21:04:11;;;;;;;12.00;6.60;;;;;;;3.50;86.85;99233.45;130609;1295;22723;-83
2023/01/15 21:08:18;;;;;;;;;;;;;;;;;;;;;
2023/01/15 21:12:32;;;;;;;;;;;;;;;;;;;;;
2023/01/15 21:17:07;;;;;;;;;;;;;;;;;;;;;
2023/01/15 21:21:29;;;;;;;;;;;;;;;;;;;;;
2023/01/15 21:34:35;;;;;;;;;;;;;;;;;;;;;
2023/01/15 21:39:11;;;;;;;17.30;8.10;;;;;;;3.27;86.14;99223.05;130304;1297;24257;-83
2023/01/15 21:47:09;;;;;;;;;;;;;;;;;;;;;
2023/01/15 22:00:16;;;;;;;;;;;;;;;;;;;;;
2023/01/15 22:30:28;;;;;;;11.10;5.50;;;;;;;2.43;85.96;99210.88;130583;1296;22677;-82
2023/01/15 22:38:34;;;;;;;;;;;;;;;;;;;;;
2023/01/15 22:56:27;;;;;;;13.10;5.50;;;;;;;2.11;85.20;99179.52;130173;1301;22588;-85
2023/01/15 22:59:56;;;;;;;;;;;;;;;;;;;;;
2023/01/15 23:17:14;;;;;;;;;;;;;;;1.92;84.58;99163.44;129760;1303;24225;-82
2023/01/15 23:29:28;;;;;;;;;;;;;;;;;;;;;
2023/01/15 23:34:41;;;;;;;4.70;2.40;;;;;;;1.79;83.87;99164.16;129678;1304;25382;-84
2023/01/15 23:46:45;;;;;;;;;;;;;;;;;;;;;
2023/01/15 23:55:05;;;;;;;;;;;;;;;;;;;;;
